sensor_id;sensor_type;location;lat;lon;timestamp;temperature;humidity
76878;DHT22;65843;50.692;12.844;2024-01-25T00:00:56;21.60;51.50
76878;DHT22;65843;50.692;12.844;2024-01-25T00:01:57;21.60;51.50
76878;DHT22;65843;50.692;12.844;2024-01-25T00:02:58;21.60;51.60
76878;DHT22;65843;50.692;12.844;2024-01-25T00:03:58;21.60;51.80
76878;DHT22;65843;50.692;12.844;2024-01-25T00:04:59;21.60;51.80
76878;DHT22;65843;50.692;12.844;2024-01-25T00:06:00;21.60;51.80
76878;DHT22;65843;50.692;12.844;2024-01-25T00:07:01;21.60;51.90
76878;DHT22;65843;50.692;12.844;2024-01-25T00:08:02;21.60;51.80
76878;DHT22;65843;50.692;12.844;2024-01-25T00:09:03;21.60;52.00
76878;DHT22;65843;50.692;12.844;2024-01-25T00:10:05;21.60;52.00
76878;DHT22;65843;50.692;12.844;2024-01-25T00:11:08;21.60;51.90
76878;DHT22;65843;50.692;12.844;2024-01-25T00:12:10;21.70;51.90
76878;DHT22;65843;50.692;12.844;2024-01-25T00:13:11;21.70;52.00
76878;DHT22;65843;50.692;12.844;2024-01-25T00:14:12;21.70;52.00
76878;DHT22;65843;50.692;12.844;2024-01-25T00:15:13;21.70;52.10
76878;DHT22;65843;50.692;12.844;2024-01-25T00:16:14;21.70;52.10
76878;DHT22;65843;50.692;12.844;2024-01-25T00:17:15;21.70;52.20
76878;DHT22;65843;50.692;12.844;2024-01-25T00:18:16;21.70;52.30
76878;DHT22;65843;50.692;12.844;2024-01-25T00:19:16;21.70;52.20
76878;DHT22;65843;50.692;12.844;2024-01-25T00:20:17;21.70;52.10
76878;DHT22;65843;50.692;12.844;2024-01-25T00:21:18;21.70;52.20
76878;DHT22;65843;50.692;12.844;2024-01-25T00:22:19;21.70;52.30
76878;DHT22;65843;50.692;12.844;2024-01-25T00:23:20;21.70;52.40
76878;DHT22;65843;50.692;12.844;2024-01-25T00:24:21;21.70;52.30
76878;DHT22;65843;50.692;12.844;2024-01-25T00:25:22;21.70;52.20
76878;DHT22;65843;50.692;12.844;2024-01-25T00:26:23;21.70;52.30
76878;DHT22;65843;50.692;12.844;2024-01-25T00:27:23;21.70;52.40
76878;DHT22;65843;50.692;12.844;2024-01-25T00:28:28;21.70;52.30
76878;DHT22;65843;50.692;12.844;2024-01-25T00:29:30;21.70;52.10
76878;DHT22;65843;50.692;12.844;2024-01-25T00:30:31;21.70;52.20
76878;DHT22;65843;50.692;12.844;2024-01-25T00:31:32;21.70;52.30
76878;DHT22;65843;50.692;12.844;2024-01-25T00:32:32;21.70;52.10
76878;DHT22;65843;50.692;12.844;2024-01-25T00:33:33;21.70;52.20
76878;DHT22;65843;50.692;12.844;2024-01-25T00:34:34;21.70;51.90
76878;DHT22;65843;50.692;12.844;2024-01-25T00:35:35;21.70;52.30
76878;DHT22;65843;50.692;12.844;2024-01-25T00:36:36;21.70;52.30
76878;DHT22;65843;50.692;12.844;2024-01-25T00:37:39;21.70;52.00
76878;DHT22;65843;50.692;12.844;2024-01-25T00:38:40;21.70;52.00
76878;DHT22;65843;50.692;12.844;2024-01-25T00:39:41;21.70;52.20
76878;DHT22;65843;50.692;12.844;2024-01-25T00:40:42;21.70;52.20
76878;DHT22;65843;50.692;12.844;2024-01-25T00:41:43;21.70;52.50
76878;DHT22;65843;50.692;12.844;2024-01-25T00:42:45;21.70;52.30
76878;DHT22;65843;50.692;12.844;2024-01-25T00:43:53;21.70;52.30
76878;DHT22;65843;50.692;12.844;2024-01-25T00:44:54;21.70;52.60
76878;DHT22;65843;50.692;12.844;2024-01-25T00:45:55;21.70;52.60
76878;DHT22;65843;50.692;12.844;2024-01-25T00:46:56;21.70;52.70
76878;DHT22;65843;50.692;12.844;2024-01-25T00:47:57;21.70;52.70
76878;DHT22;65843;50.692;12.844;2024-01-25T00:48:58;21.80;52.70
76878;DHT22;65843;50.692;12.844;2024-01-25T00:49:59;21.80;52.70
76878;DHT22;65843;50.692;12.844;2024-01-25T00:51:00;21.80;52.60
76878;DHT22;65843;50.692;12.844;2024-01-25T00:52:02;21.80;52.60
76878;DHT22;65843;50.692;12.844;2024-01-25T00:53:03;21.80;52.60
76878;DHT22;65843;50.692;12.844;2024-01-25T00:54:04;21.80;52.60
76878;DHT22;65843;50.692;12.844;2024-01-25T00:55:05;21.80;52.30
76878;DHT22;65843;50.692;12.844;2024-01-25T00:56:06;21.80;52.30
76878;DHT22;65843;50.692;12.844;2024-01-25T00:57:07;21.80;52.50
76878;DHT22;65843;50.692;12.844;2024-01-25T00:58:08;21.80;52.60
76878;DHT22;65843;50.692;12.844;2024-01-25T00:59:09;21.80;52.50
76878;DHT22;65843;50.692;12.844;2024-01-25T01:00:12;21.80;52.50
76878;DHT22;65843;50.692;12.844;2024-01-25T01:01:13;21.80;52.30
76878;DHT22;65843;50.692;12.844;2024-01-25T01:02:14;21.80;52.30
76878;DHT22;65843;50.692;12.844;2024-01-25T01:03:15;21.90;52.50
76878;DHT22;65843;50.692;12.844;2024-01-25T01:04:17;21.80;52.40
76878;DHT22;65843;50.692;12.844;2024-01-25T01:05:18;21.80;52.40
76878;DHT22;65843;50.692;12.844;2024-01-25T01:06:20;21.80;52.60
76878;DHT22;65843;50.692;12.844;2024-01-25T01:07:21;21.90;52.50
76878;DHT22;65843;50.692;12.844;2024-01-25T01:08:22;21.90;52.60
76878;DHT22;65843;50.692;12.844;2024-01-25T01:09:23;21.90;52.10
76878;DHT22;65843;50.692;12.844;2024-01-25T01:10:24;21.90;52.30
76878;DHT22;65843;50.692;12.844;2024-01-25T01:11:24;21.90;52.20
76878;DHT22;65843;50.692;12.844;2024-01-25T01:12:25;21.90;52.10
76878;DHT22;65843;50.692;12.844;2024-01-25T01:13:26;21.90;52.00
76878;DHT22;65843;50.692;12.844;2024-01-25T01:14:27;21.90;52.10
76878;DHT22;65843;50.692;12.844;2024-01-25T01:15:28;21.90;52.00
76878;DHT22;65843;50.692;12.844;2024-01-25T01:16:29;21.90;52.20
76878;DHT22;65843;50.692;12.844;2024-01-25T01:17:33;21.90;51.90
76878;DHT22;65843;50.692;12.844;2024-01-25T01:18:34;21.90;52.30
76878;DHT22;65843;50.692;12.844;2024-01-25T01:19:35;21.90;52.40
76878;DHT22;65843;50.692;12.844;2024-01-25T01:20:36;21.90;52.10
76878;DHT22;65843;50.692;12.844;2024-01-25T01:21:36;21.90;52.10
76878;DHT22;65843;50.692;12.844;2024-01-25T01:22:39;21.90;52.50
76878;DHT22;65843;50.692;12.844;2024-01-25T01:23:40;21.90;52.30
76878;DHT22;65843;50.692;12.844;2024-01-25T01:24:41;21.90;52.30
76878;DHT22;65843;50.692;12.844;2024-01-25T01:25:41;21.90;52.20
76878;DHT22;65843;50.692;12.844;2024-01-25T01:26:42;21.90;52.20
76878;DHT22;65843;50.692;12.844;2024-01-25T01:27:43;21.90;52.30
76878;DHT22;65843;50.692;12.844;2024-01-25T01:28:44;21.90;52.20
76878;DHT22;65843;50.692;12.844;2024-01-25T01:29:45;21.90;52.30
76878;DHT22;65843;50.692;12.844;2024-01-25T01:30:46;21.90;52.30
76878;DHT22;65843;50.692;12.844;2024-01-25T01:31:47;21.90;52.30
76878;DHT22;65843;50.692;12.844;2024-01-25T01:32:47;21.90;52.40
76878;DHT22;65843;50.692;12.844;2024-01-25T01:33:48;21.90;52.40
76878;DHT22;65843;50.692;12.844;2024-01-25T01:34:49;21.90;52.50
76878;DHT22;65843;50.692;12.844;2024-01-25T01:35:50;21.90;52.50
76878;DHT22;65843;50.692;12.844;2024-01-25T01:36:51;21.90;52.60
76878;DHT22;65843;50.692;12.844;2024-01-25T01:37:52;21.90;52.40
76878;DHT22;65843;50.692;12.844;2024-01-25T01:38:52;21.90;52.20
76878;DHT22;65843;50.692;12.844;2024-01-25T01:39:53;21.90;52.20
76878;DHT22;65843;50.692;12.844;2024-01-25T01:40:56;21.90;52.30
76878;DHT22;65843;50.692;12.844;2024-01-25T01:41:57;21.90;52.20
76878;DHT22;65843;50.692;12.844;2024-01-25T01:43:01;21.90;52.10
76878;DHT22;65843;50.692;12.844;2024-01-25T01:44:02;21.90;52.10
76878;DHT22;65843;50.692;12.844;2024-01-25T01:45:03;21.90;52.30
76878;DHT22;65843;50.692;12.844;2024-01-25T01:46:06;21.90;52.50
76878;DHT22;65843;50.692;12.844;2024-01-25T01:47:10;21.90;52.40
76878;DHT22;65843;50.692;12.844;2024-01-25T01:48:11;21.90;52.20
76878;DHT22;65843;50.692;12.844;2024-01-25T01:49:13;21.90;52.20
76878;DHT22;65843;50.692;12.844;2024-01-25T01:50:14;21.90;52.20
76878;DHT22;65843;50.692;12.844;2024-01-25T01:51:15;21.90;52.40
76878;DHT22;65843;50.692;12.844;2024-01-25T01:52:16;21.90;52.50
76878;DHT22;65843;50.692;12.844;2024-01-25T01:53:18;21.90;52.50
76878;DHT22;65843;50.692;12.844;2024-01-25T01:54:19;21.90;52.50
76878;DHT22;65843;50.692;12.844;2024-01-25T01:55:20;21.90;52.60
76878;DHT22;65843;50.692;12.844;2024-01-25T01:56:22;21.90;52.60
76878;DHT22;65843;50.692;12.844;2024-01-25T01:57:23;21.90;52.50
76878;DHT22;65843;50.692;12.844;2024-01-25T01:58:24;21.90;52.40
76878;DHT22;65843;50.692;12.844;2024-01-25T01:59:25;21.90;52.40
76878;DHT22;65843;50.692;12.844;2024-01-25T02:00:26;21.90;52.20
76878;DHT22;65843;50.692;12.844;2024-01-25T02:01:29;21.90;52.20
76878;DHT22;65843;50.692;12.844;2024-01-25T02:02:30;21.90;52.40
76878;DHT22;65843;50.692;12.844;2024-01-25T02:03:31;21.90;52.30
76878;DHT22;65843;50.692;12.844;2024-01-25T02:04:32;21.90;52.40
76878;DHT22;65843;50.692;12.844;2024-01-25T02:05:33;21.90;52.30
76878;DHT22;65843;50.692;12.844;2024-01-25T02:06:34;21.90;52.30
76878;DHT22;65843;50.692;12.844;2024-01-25T02:07:34;21.90;52.30
76878;DHT22;65843;50.692;12.844;2024-01-25T02:08:35;21.90;52.40
76878;DHT22;65843;50.692;12.844;2024-01-25T02:09:36;21.90;52.10
76878;DHT22;65843;50.692;12.844;2024-01-25T02:10:37;21.90;52.20
76878;DHT22;65843;50.692;12.844;2024-01-25T02:11:38;21.90;52.20
76878;DHT22;65843;50.692;12.844;2024-01-25T02:12:39;21.90;52.10
76878;DHT22;65843;50.692;12.844;2024-01-25T02:13:40;21.90;52.30
76878;DHT22;65843;50.692;12.844;2024-01-25T02:14:41;21.90;52.20
76878;DHT22;65843;50.692;12.844;2024-01-25T02:15:41;21.90;52.30
76878;DHT22;65843;50.692;12.844;2024-01-25T02:16:42;21.90;52.30
76878;DHT22;65843;50.692;12.844;2024-01-25T02:17:46;21.90;52.20
76878;DHT22;65843;50.692;12.844;2024-01-25T02:18:47;21.90;52.10
76878;DHT22;65843;50.692;12.844;2024-01-25T02:19:48;21.90;52.20
76878;DHT22;65843;50.692;12.844;2024-01-25T02:20:49;21.90;52.30
76878;DHT22;65843;50.692;12.844;2024-01-25T02:21:51;21.90;52.10
76878;DHT22;65843;50.692;12.844;2024-01-25T02:22:52;21.90;52.20
76878;DHT22;65843;50.692;12.844;2024-01-25T02:23:52;21.90;52.30
76878;DHT22;65843;50.692;12.844;2024-01-25T02:24:53;21.90;52.30
76878;DHT22;65843;50.692;12.844;2024-01-25T02:25:54;21.90;52.20
76878;DHT22;65843;50.692;12.844;2024-01-25T02:26:55;21.90;52.20
76878;DHT22;65843;50.692;12.844;2024-01-25T02:27:56;21.90;52.40
76878;DHT22;65843;50.692;12.844;2024-01-25T02:28:57;21.90;52.10
76878;DHT22;65843;50.692;12.844;2024-01-25T02:29:57;21.90;52.30
76878;DHT22;65843;50.692;12.844;2024-01-25T02:30:59;21.90;52.20
76878;DHT22;65843;50.692;12.844;2024-01-25T02:32:00;21.90;52.20
76878;DHT22;65843;50.692;12.844;2024-01-25T02:33:01;21.90;52.40
76878;DHT22;65843;50.692;12.844;2024-01-25T02:34:02;21.90;52.50
76878;DHT22;65843;50.692;12.844;2024-01-25T02:35:03;21.90;52.60
76878;DHT22;65843;50.692;12.844;2024-01-25T02:36:04;21.90;52.80
76878;DHT22;65843;50.692;12.844;2024-01-25T02:37:05;21.90;52.80
76878;DHT22;65843;50.692;12.844;2024-01-25T02:54:28;21.90;52.70
76878;DHT22;65843;50.692;12.844;2024-01-25T02:55:28;21.90;52.70
76878;DHT22;65843;50.692;12.844;2024-01-25T02:56:29;21.90;52.70
76878;DHT22;65843;50.692;12.844;2024-01-25T02:57:35;21.90;52.90
76878;DHT22;65843;50.692;12.844;2024-01-25T02:58:36;21.90;52.70
76878;DHT22;65843;50.692;12.844;2024-01-25T02:59:37;21.90;52.70
76878;DHT22;65843;50.692;12.844;2024-01-25T03:00:38;21.90;52.70
76878;DHT22;65843;50.692;12.844;2024-01-25T03:01:41;21.90;52.80
76878;DHT22;65843;50.692;12.844;2024-01-25T03:02:42;21.90;52.80
76878;DHT22;65843;50.692;12.844;2024-01-25T03:03:43;21.90;52.80
76878;DHT22;65843;50.692;12.844;2024-01-25T03:04:44;21.90;52.70
76878;DHT22;65843;50.692;12.844;2024-01-25T03:05:45;21.90;52.80
76878;DHT22;65843;50.692;12.844;2024-01-25T03:06:46;21.90;52.80
76878;DHT22;65843;50.692;12.844;2024-01-25T03:07:47;22.00;52.90
76878;DHT22;65843;50.692;12.844;2024-01-25T03:08:48;21.90;52.70
76878;DHT22;65843;50.692;12.844;2024-01-25T03:09:49;21.90;52.80
76878;DHT22;65843;50.692;12.844;2024-01-25T03:10:50;21.90;52.80
76878;DHT22;65843;50.692;12.844;2024-01-25T03:11:51;21.90;52.60
76878;DHT22;65843;50.692;12.844;2024-01-25T03:12:51;21.90;52.50
76878;DHT22;65843;50.692;12.844;2024-01-25T03:13:52;22.00;52.50
76878;DHT22;65843;50.692;12.844;2024-01-25T03:14:53;21.90;52.50
76878;DHT22;65843;50.692;12.844;2024-01-25T03:15:54;22.00;52.80
76878;DHT22;65843;50.692;12.844;2024-01-25T03:16:55;21.90;52.50
76878;DHT22;65843;50.692;12.844;2024-01-25T03:17:56;21.90;52.60
76878;DHT22;65843;50.692;12.844;2024-01-25T03:18:56;22.00;52.60
76878;DHT22;65843;50.692;12.844;2024-01-25T03:19:57;22.00;52.60
76878;DHT22;65843;50.692;12.844;2024-01-25T03:20:58;22.00;52.30
76878;DHT22;65843;50.692;12.844;2024-01-25T03:21:59;22.00;52.40
76878;DHT22;65843;50.692;12.844;2024-01-25T03:23:02;22.00;52.30
76878;DHT22;65843;50.692;12.844;2024-01-25T03:24:03;22.00;52.40
76878;DHT22;65843;50.692;12.844;2024-01-25T03:25:04;22.00;52.60
76878;DHT22;65843;50.692;12.844;2024-01-25T03:26:05;22.00;52.30
76878;DHT22;65843;50.692;12.844;2024-01-25T03:27:06;22.00;52.40
76878;DHT22;65843;50.692;12.844;2024-01-25T03:28:13;22.00;52.80
76878;DHT22;65843;50.692;12.844;2024-01-25T03:29:17;22.00;52.80
76878;DHT22;65843;50.692;12.844;2024-01-25T03:30:17;22.00;52.70
76878;DHT22;65843;50.692;12.844;2024-01-25T03:31:18;22.00;52.80
76878;DHT22;65843;50.692;12.844;2024-01-25T03:32:19;22.00;52.80
76878;DHT22;65843;50.692;12.844;2024-01-25T03:33:20;22.00;52.90
76878;DHT22;65843;50.692;12.844;2024-01-25T03:34:21;22.00;52.70
76878;DHT22;65843;50.692;12.844;2024-01-25T03:35:22;22.00;52.70
76878;DHT22;65843;50.692;12.844;2024-01-25T03:36:22;22.00;52.60
76878;DHT22;65843;50.692;12.844;2024-01-25T03:37:23;22.00;52.90
76878;DHT22;65843;50.692;12.844;2024-01-25T03:38:24;22.00;53.00
76878;DHT22;65843;50.692;12.844;2024-01-25T03:39:25;22.00;53.20
76878;DHT22;65843;50.692;12.844;2024-01-25T03:40:26;22.00;53.30
76878;DHT22;65843;50.692;12.844;2024-01-25T03:41:27;22.00;53.20
76878;DHT22;65843;50.692;12.844;2024-01-25T03:42:29;22.00;52.60
76878;DHT22;65843;50.692;12.844;2024-01-25T03:43:30;22.00;52.70
76878;DHT22;65843;50.692;12.844;2024-01-25T03:44:31;22.00;53.00
76878;DHT22;65843;50.692;12.844;2024-01-25T03:45:32;22.00;53.00
76878;DHT22;65843;50.692;12.844;2024-01-25T03:46:33;22.00;52.60
76878;DHT22;65843;50.692;12.844;2024-01-25T03:47:34;22.00;52.50
76878;DHT22;65843;50.692;12.844;2024-01-25T03:48:35;22.00;52.80
76878;DHT22;65843;50.692;12.844;2024-01-25T03:49:36;22.00;52.90
76878;DHT22;65843;50.692;12.844;2024-01-25T03:50:36;22.00;53.00
76878;DHT22;65843;50.692;12.844;2024-01-25T03:51:37;22.00;52.80
76878;DHT22;65843;50.692;12.844;2024-01-25T03:52:38;22.00;53.20
76878;DHT22;65843;50.692;12.844;2024-01-25T03:53:39;22.00;52.60
76878;DHT22;65843;50.692;12.844;2024-01-25T03:54:42;22.00;52.50
76878;DHT22;65843;50.692;12.844;2024-01-25T03:55:43;22.00;52.60
76878;DHT22;65843;50.692;12.844;2024-01-25T03:56:44;22.00;52.90
76878;DHT22;65843;50.692;12.844;2024-01-25T03:57:45;22.00;52.60
76878;DHT22;65843;50.692;12.844;2024-01-25T03:58:45;22.00;52.80
76878;DHT22;65843;50.692;12.844;2024-01-25T03:59:47;22.00;52.90
76878;DHT22;65843;50.692;12.844;2024-01-25T04:00:48;22.00;52.90
76878;DHT22;65843;50.692;12.844;2024-01-25T04:01:49;22.00;52.60
76878;DHT22;65843;50.692;12.844;2024-01-25T04:02:50;22.00;52.80
76878;DHT22;65843;50.692;12.844;2024-01-25T04:03:51;22.00;52.50
76878;DHT22;65843;50.692;12.844;2024-01-25T04:04:52;22.00;52.20
76878;DHT22;65843;50.692;12.844;2024-01-25T04:05:52;22.00;52.30
76878;DHT22;65843;50.692;12.844;2024-01-25T04:06:53;22.00;52.50
76878;DHT22;65843;50.692;12.844;2024-01-25T04:07:54;22.00;52.50
76878;DHT22;65843;50.692;12.844;2024-01-25T04:08:55;22.00;52.50
76878;DHT22;65843;50.692;12.844;2024-01-25T04:09:56;22.00;52.00
76878;DHT22;65843;50.692;12.844;2024-01-25T04:10:57;22.00;52.30
76878;DHT22;65843;50.692;12.844;2024-01-25T04:11:57;22.00;52.50
76878;DHT22;65843;50.692;12.844;2024-01-25T04:12:58;22.00;52.60
76878;DHT22;65843;50.692;12.844;2024-01-25T04:14:01;22.00;52.80
76878;DHT22;65843;50.692;12.844;2024-01-25T04:15:02;22.00;52.90
76878;DHT22;65843;50.692;12.844;2024-01-25T04:16:03;22.00;52.80
76878;DHT22;65843;50.692;12.844;2024-01-25T04:17:04;22.00;53.00
76878;DHT22;65843;50.692;12.844;2024-01-25T04:18:05;22.00;53.20
76878;DHT22;65843;50.692;12.844;2024-01-25T04:19:05;22.00;53.00
76878;DHT22;65843;50.692;12.844;2024-01-25T04:20:06;22.00;53.00
76878;DHT22;65843;50.692;12.844;2024-01-25T04:21:07;22.00;53.10
76878;DHT22;65843;50.692;12.844;2024-01-25T04:22:10;22.00;53.20
76878;DHT22;65843;50.692;12.844;2024-01-25T04:23:11;22.00;52.80
76878;DHT22;65843;50.692;12.844;2024-01-25T04:24:11;22.00;52.80
76878;DHT22;65843;50.692;12.844;2024-01-25T04:25:12;22.00;53.10
76878;DHT22;65843;50.692;12.844;2024-01-25T04:26:14;22.00;53.40
76878;DHT22;65843;50.692;12.844;2024-01-25T04:27:15;22.00;53.50
76878;DHT22;65843;50.692;12.844;2024-01-25T04:28:16;22.00;52.80
76878;DHT22;65843;50.692;12.844;2024-01-25T04:29:17;22.00;52.50
76878;DHT22;65843;50.692;12.844;2024-01-25T04:30:17;22.00;52.30
76878;DHT22;65843;50.692;12.844;2024-01-25T04:31:19;22.00;52.80
76878;DHT22;65843;50.692;12.844;2024-01-25T04:32:20;22.00;52.70
76878;DHT22;65843;50.692;12.844;2024-01-25T04:33:20;22.00;52.60
76878;DHT22;65843;50.692;12.844;2024-01-25T04:34:21;22.00;52.40
76878;DHT22;65843;50.692;12.844;2024-01-25T04:35:22;22.00;52.20
76878;DHT22;65843;50.692;12.844;2024-01-25T04:36:23;22.00;52.20
76878;DHT22;65843;50.692;12.844;2024-01-25T04:37:24;22.00;52.10
76878;DHT22;65843;50.692;12.844;2024-01-25T04:38:25;22.00;52.10
76878;DHT22;65843;50.692;12.844;2024-01-25T04:39:26;22.00;52.10
76878;DHT22;65843;50.692;12.844;2024-01-25T04:40:27;22.00;52.20
76878;DHT22;65843;50.692;12.844;2024-01-25T04:41:28;22.00;52.10
76878;DHT22;65843;50.692;12.844;2024-01-25T04:42:29;22.00;52.00
76878;DHT22;65843;50.692;12.844;2024-01-25T04:43:33;22.00;52.60
76878;DHT22;65843;50.692;12.844;2024-01-25T04:44:34;22.00;52.40
76878;DHT22;65843;50.692;12.844;2024-01-25T04:45:35;22.00;51.60
76878;DHT22;65843;50.692;12.844;2024-01-25T04:46:36;22.00;51.60
76878;DHT22;65843;50.692;12.844;2024-01-25T04:47:38;22.00;51.50
76878;DHT22;65843;50.692;12.844;2024-01-25T04:48:39;22.00;51.50
76878;DHT22;65843;50.692;12.844;2024-01-25T04:49:40;22.00;51.40
76878;DHT22;65843;50.692;12.844;2024-01-25T04:50:41;22.00;51.40
76878;DHT22;65843;50.692;12.844;2024-01-25T04:51:42;22.00;51.30
76878;DHT22;65843;50.692;12.844;2024-01-25T04:52:43;22.00;51.20
76878;DHT22;65843;50.692;12.844;2024-01-25T04:53:44;22.00;51.00
76878;DHT22;65843;50.692;12.844;2024-01-25T04:54:45;22.00;50.80
76878;DHT22;65843;50.692;12.844;2024-01-25T04:55:45;22.00;50.50
76878;DHT22;65843;50.692;12.844;2024-01-25T04:56:46;22.00;50.40
76878;DHT22;65843;50.692;12.844;2024-01-25T04:57:47;22.00;50.10
76878;DHT22;65843;50.692;12.844;2024-01-25T04:58:50;22.00;50.10
76878;DHT22;65843;50.692;12.844;2024-01-25T04:59:51;22.00;50.00
76878;DHT22;65843;50.692;12.844;2024-01-25T05:00:52;22.00;50.10
76878;DHT22;65843;50.692;12.844;2024-01-25T05:01:53;22.00;50.00
76878;DHT22;65843;50.692;12.844;2024-01-25T05:02:55;21.90;50.10
76878;DHT22;65843;50.692;12.844;2024-01-25T05:03:56;21.90;50.00
76878;DHT22;65843;50.692;12.844;2024-01-25T05:04:57;21.90;50.20
76878;DHT22;65843;50.692;12.844;2024-01-25T05:05:58;21.90;50.20
76878;DHT22;65843;50.692;12.844;2024-01-25T05:06:59;21.90;50.30
76878;DHT22;65843;50.692;12.844;2024-01-25T05:08:00;21.90;50.10
76878;DHT22;65843;50.692;12.844;2024-01-25T05:09:01;21.90;50.10
76878;DHT22;65843;50.692;12.844;2024-01-25T05:10:02;22.00;50.10
76878;DHT22;65843;50.692;12.844;2024-01-25T05:11:02;22.00;50.10
76878;DHT22;65843;50.692;12.844;2024-01-25T05:12:03;22.00;50.10
76878;DHT22;65843;50.692;12.844;2024-01-25T05:13:05;22.00;49.90
76878;DHT22;65843;50.692;12.844;2024-01-25T05:14:06;21.90;49.70
76878;DHT22;65843;50.692;12.844;2024-01-25T05:15:07;21.90;49.60
76878;DHT22;65843;50.692;12.844;2024-01-25T05:16:08;21.90;49.50
76878;DHT22;65843;50.692;12.844;2024-01-25T05:17:09;21.90;49.40
76878;DHT22;65843;50.692;12.844;2024-01-25T05:18:10;21.90;49.20
76878;DHT22;65843;50.692;12.844;2024-01-25T05:19:11;21.90;49.20
76878;DHT22;65843;50.692;12.844;2024-01-25T05:20:11;21.90;49.10
76878;DHT22;65843;50.692;12.844;2024-01-25T05:21:13;21.90;49.10
76878;DHT22;65843;50.692;12.844;2024-01-25T05:22:14;21.90;49.00
76878;DHT22;65843;50.692;12.844;2024-01-25T05:23:15;21.90;48.90
76878;DHT22;65843;50.692;12.844;2024-01-25T05:24:16;21.90;49.00
76878;DHT22;65843;50.692;12.844;2024-01-25T05:25:17;21.90;48.90
76878;DHT22;65843;50.692;12.844;2024-01-25T05:26:18;21.80;48.90
76878;DHT22;65843;50.692;12.844;2024-01-25T05:27:19;21.80;48.80
76878;DHT22;65843;50.692;12.844;2024-01-25T05:28:20;21.80;48.80
76878;DHT22;65843;50.692;12.844;2024-01-25T05:29:21;21.80;48.80
76878;DHT22;65843;50.692;12.844;2024-01-25T05:30:26;21.80;48.90
76878;DHT22;65843;50.692;12.844;2024-01-25T05:31:27;21.80;49.00
76878;DHT22;65843;50.692;12.844;2024-01-25T05:32:28;21.80;49.10
76878;DHT22;65843;50.692;12.844;2024-01-25T05:33:29;21.70;49.20
76878;DHT22;65843;50.692;12.844;2024-01-25T05:34:29;21.70;49.20
76878;DHT22;65843;50.692;12.844;2024-01-25T05:35:30;21.70;49.30
76878;DHT22;65843;50.692;12.844;2024-01-25T05:36:31;21.70;49.30
76878;DHT22;65843;50.692;12.844;2024-01-25T05:37:32;21.70;49.30
76878;DHT22;65843;50.692;12.844;2024-01-25T05:38:33;21.70;49.40
76878;DHT22;65843;50.692;12.844;2024-01-25T05:39:34;21.70;49.40
76878;DHT22;65843;50.692;12.844;2024-01-25T05:40:35;21.70;49.40
76878;DHT22;65843;50.692;12.844;2024-01-25T05:41:35;21.70;49.50
76878;DHT22;65843;50.692;12.844;2024-01-25T05:42:36;21.70;49.50
76878;DHT22;65843;50.692;12.844;2024-01-25T05:43:37;21.70;49.50
76878;DHT22;65843;50.692;12.844;2024-01-25T05:44:38;21.70;49.60
76878;DHT22;65843;50.692;12.844;2024-01-25T05:45:39;21.70;49.60
76878;DHT22;65843;50.692;12.844;2024-01-25T05:46:40;21.70;49.60
76878;DHT22;65843;50.692;12.844;2024-01-25T05:47:41;21.70;49.60
76878;DHT22;65843;50.692;12.844;2024-01-25T05:48:42;21.70;49.60
76878;DHT22;65843;50.692;12.844;2024-01-25T05:49:43;21.70;49.60
76878;DHT22;65843;50.692;12.844;2024-01-25T05:50:44;21.70;49.70
76878;DHT22;65843;50.692;12.844;2024-01-25T05:51:45;21.70;49.70
76878;DHT22;65843;50.692;12.844;2024-01-25T05:52:45;21.70;49.70
76878;DHT22;65843;50.692;12.844;2024-01-25T05:53:46;21.70;49.70
76878;DHT22;65843;50.692;12.844;2024-01-25T05:54:47;21.60;49.70
76878;DHT22;65843;50.692;12.844;2024-01-25T05:55:48;21.60;49.70
76878;DHT22;65843;50.692;12.844;2024-01-25T05:56:49;21.60;49.70
76878;DHT22;65843;50.692;12.844;2024-01-25T05:57:50;21.60;49.70
76878;DHT22;65843;50.692;12.844;2024-01-25T05:58:51;21.60;49.70
76878;DHT22;65843;50.692;12.844;2024-01-25T05:59:52;21.60;49.70
76878;DHT22;65843;50.692;12.844;2024-01-25T06:00:53;21.50;49.70
76878;DHT22;65843;50.692;12.844;2024-01-25T06:01:54;21.60;49.70
76878;DHT22;65843;50.692;12.844;2024-01-25T06:02:55;21.60;49.70
76878;DHT22;65843;50.692;12.844;2024-01-25T06:03:55;21.60;49.70
76878;DHT22;65843;50.692;12.844;2024-01-25T06:04:56;21.50;49.80
76878;DHT22;65843;50.692;12.844;2024-01-25T06:05:59;21.50;49.70
76878;DHT22;65843;50.692;12.844;2024-01-25T06:07:00;21.50;49.70
76878;DHT22;65843;50.692;12.844;2024-01-25T06:08:01;21.50;49.70
76878;DHT22;65843;50.692;12.844;2024-01-25T06:09:02;21.50;49.80
76878;DHT22;65843;50.692;12.844;2024-01-25T06:10:03;21.50;49.70
76878;DHT22;65843;50.692;12.844;2024-01-25T06:11:04;21.50;49.70
76878;DHT22;65843;50.692;12.844;2024-01-25T06:12:05;21.50;49.70
76878;DHT22;65843;50.692;12.844;2024-01-25T06:13:06;21.50;49.80
76878;DHT22;65843;50.692;12.844;2024-01-25T06:14:07;21.50;49.70
76878;DHT22;65843;50.692;12.844;2024-01-25T06:15:08;21.50;49.70
76878;DHT22;65843;50.692;12.844;2024-01-25T06:16:09;21.50;49.80
76878;DHT22;65843;50.692;12.844;2024-01-25T06:17:10;21.50;49.70
76878;DHT22;65843;50.692;12.844;2024-01-25T06:18:11;21.50;49.80
76878;DHT22;65843;50.692;12.844;2024-01-25T06:19:12;21.50;49.80
76878;DHT22;65843;50.692;12.844;2024-01-25T06:20:13;21.50;49.70
76878;DHT22;65843;50.692;12.844;2024-01-25T06:21:14;21.50;49.70
76878;DHT22;65843;50.692;12.844;2024-01-25T06:22:15;21.50;49.70
76878;DHT22;65843;50.692;12.844;2024-01-25T06:23:17;21.50;49.70
76878;DHT22;65843;50.692;12.844;2024-01-25T06:24:18;21.50;49.70
76878;DHT22;65843;50.692;12.844;2024-01-25T06:25:19;21.50;49.70
76878;DHT22;65843;50.692;12.844;2024-01-25T06:26:20;21.50;49.70
76878;DHT22;65843;50.692;12.844;2024-01-25T06:27:21;21.50;49.70
76878;DHT22;65843;50.692;12.844;2024-01-25T06:28:22;21.50;49.70
76878;DHT22;65843;50.692;12.844;2024-01-25T06:29:22;21.50;49.70
76878;DHT22;65843;50.692;12.844;2024-01-25T06:30:23;21.50;49.70
76878;DHT22;65843;50.692;12.844;2024-01-25T06:31:25;21.40;49.70
76878;DHT22;65843;50.692;12.844;2024-01-25T06:32:25;21.40;49.70
76878;DHT22;65843;50.692;12.844;2024-01-25T06:33:26;21.40;49.70
76878;DHT22;65843;50.692;12.844;2024-01-25T06:34:27;21.40;49.70
76878;DHT22;65843;50.692;12.844;2024-01-25T06:35:28;21.40;49.70
76878;DHT22;65843;50.692;12.844;2024-01-25T06:36:29;21.40;49.70